createdAt,value
2018-09-17T00:01:07.422Z,9.00
2018-09-17T00:03:36.753Z,8.13
2018-09-17T00:06:06.021Z,8.37
2018-09-17T00:08:35.337Z,8.60
2018-09-17T00:11:04.747Z,7.47
2018-09-17T00:13:34.007Z,7.60
2018-09-17T00:16:03.294Z,7.40
2018-09-17T00:18:32.545Z,8.03
2018-09-17T00:21:01.815Z,9.80
2018-09-17T00:23:31.100Z,7.37
2018-09-17T00:26:00.532Z,8.63
2018-09-17T00:28:29.797Z,8.40
2018-09-17T00:30:59.116Z,9.17
2018-09-17T00:33:29.169Z,8.40
2018-09-17T00:35:58.529Z,7.80
2018-09-17T00:38:27.785Z,8.03
2018-09-17T00:40:57.045Z,8.00
2018-09-17T00:43:26.280Z,7.90
2018-09-17T00:45:55.573Z,8.73
2018-09-17T00:48:24.826Z,7.50
2018-09-17T00:50:54.131Z,7.80
2018-09-17T00:53:23.379Z,8.17
2018-09-17T00:55:52.693Z,8.47
2018-09-17T00:58:21.969Z,7.67
2018-09-17T01:00:51.285Z,7.93
2018-09-17T01:03:20.526Z,10.57
2018-09-17T01:05:49.924Z,10.37
2018-09-17T01:08:19.201Z,9.40
2018-09-17T01:10:48.557Z,9.20
2018-09-17T01:13:17.806Z,9.10
2018-09-17T01:15:47.126Z,8.60
2018-09-17T01:18:16.407Z,7.87
2018-09-17T01:20:45.723Z,8.00
2018-09-17T01:23:14.986Z,7.97
2018-09-17T01:25:44.287Z,9.00
2018-09-17T01:28:13.592Z,9.20
2018-09-17T01:30:42.862Z,8.80
2018-09-17T01:33:12.126Z,10.07
2018-09-17T01:35:41.426Z,10.30
2018-09-17T01:38:10.727Z,9.27
2018-09-17T01:40:40.018Z,9.40
2018-09-17T01:43:09.303Z,8.50
2018-09-17T01:45:38.549Z,8.47
2018-09-17T01:48:07.829Z,9.33
2018-09-17T01:50:37.097Z,9.20
2018-09-17T01:53:06.420Z,10.37
2018-09-17T01:55:35.690Z,9.47
2018-09-17T01:58:04.976Z,8.90
2018-09-17T02:00:34.292Z,9.33
2018-09-17T02:03:03.613Z,9.27
2018-09-17T02:05:32.885Z,8.63
2018-09-17T02:08:02.248Z,8.43
2018-09-17T02:10:31.494Z,9.10
2018-09-17T02:13:00.790Z,8.50
2018-09-17T02:15:30.052Z,8.70
2018-09-17T02:17:59.334Z,9.80
2018-09-17T02:20:28.608Z,9.27
2018-09-17T02:22:57.878Z,9.80
2018-09-17T02:25:27.133Z,8.63
2018-09-17T02:27:56.478Z,9.50
2018-09-17T02:30:25.830Z,9.00
2018-09-17T02:32:55.114Z,9.23
2018-09-17T02:35:24.458Z,9.27
2018-09-17T02:37:53.726Z,9.70
2018-09-17T02:40:23.060Z,8.70
2018-09-17T02:42:52.325Z,9.37
2018-09-17T02:45:21.965Z,9.37
2018-09-17T02:47:51.218Z,8.90
2018-09-17T02:50:20.499Z,8.80
2018-09-17T02:52:49.769Z,9.47
2018-09-17T02:55:19.046Z,9.03
2018-09-17T02:57:48.342Z,8.80
2018-09-17T03:00:20.339Z,8.70
2018-09-17T03:02:51.285Z,9.80
2018-09-17T03:05:20.566Z,9.40
2018-09-17T03:07:49.909Z,9.40
2018-09-17T03:10:19.195Z,10.33
2018-09-17T03:12:48.472Z,9.00
2018-09-17T03:15:28.994Z,10.03
2018-09-17T03:17:58.283Z,10.37
2018-09-17T03:20:27.611Z,9.70
2018-09-17T03:22:56.929Z,9.20
2018-09-17T03:25:26.339Z,9.90
2018-09-17T03:27:55.679Z,9.63
2018-09-17T03:30:24.969Z,9.00
2018-09-17T03:32:54.240Z,9.30
2018-09-17T03:35:23.540Z,9.83
2018-09-17T03:37:52.809Z,9.63
2018-09-17T03:40:22.082Z,9.30
2018-09-17T03:42:51.457Z,9.80
2018-09-17T03:45:20.844Z,9.80
2018-09-17T03:47:50.237Z,9.87
2018-09-17T03:50:19.497Z,9.07
2018-09-17T03:52:48.823Z,10.00
2018-09-17T03:55:18.043Z,9.90
2018-09-17T03:57:47.316Z,10.40
2018-09-17T04:00:16.616Z,9.80
2018-09-17T04:02:45.916Z,10.20
2018-09-17T04:05:15.168Z,9.20
2018-09-17T04:07:44.468Z,10.17
2018-09-17T04:10:13.738Z,10.17
2018-09-17T04:12:43.045Z,9.53
2018-09-17T04:15:12.529Z,9.90
2018-09-17T04:17:41.853Z,10.90
2018-09-17T04:20:11.160Z,10.73
2018-09-17T04:22:40.454Z,11.27
2018-09-17T04:25:09.751Z,10.17
2018-09-17T04:27:39.091Z,12.40
2018-09-17T04:30:08.337Z,11.17
2018-09-17T04:32:37.628Z,11.07
2018-09-17T04:35:07.712Z,10.37
2018-09-17T04:37:38.369Z,11.20
2018-09-17T04:40:07.973Z,10.20
2018-09-17T04:42:38.404Z,11.37
2018-09-17T04:45:07.877Z,10.30
2018-09-17T04:47:37.151Z,12.23
2018-09-17T04:50:06.677Z,16.10
2018-09-17T04:52:35.961Z,35.83
2018-09-17T04:55:05.250Z,21.80
2018-09-17T04:57:34.518Z,14.17
2018-09-17T05:00:03.898Z,11.97
2018-09-17T05:02:33.148Z,10.50
2018-09-17T05:05:02.452Z,11.53
2018-09-17T05:07:31.690Z,11.40
2018-09-17T05:10:00.973Z,10.77
2018-09-17T05:12:30.209Z,11.40
2018-09-17T05:14:59.493Z,14.03
2018-09-17T05:17:28.733Z,11.93
2018-09-17T05:19:58.345Z,13.33
2018-09-17T05:22:28.116Z,12.63
2018-09-17T05:24:58.259Z,13.10
2018-09-17T05:27:27.525Z,12.40
2018-09-17T05:29:56.860Z,12.43
2018-09-17T05:32:26.137Z,12.70
2018-09-17T05:34:55.482Z,11.13
2018-09-17T05:37:24.784Z,12.80
2018-09-17T05:39:54.042Z,13.67
2018-09-17T05:42:23.298Z,13.00
2018-09-17T05:44:52.555Z,13.60
2018-09-17T05:47:21.831Z,12.50
2018-09-17T05:49:51.046Z,11.70
2018-09-17T05:52:20.325Z,12.63
2018-09-17T05:54:49.553Z,11.97
2018-09-17T05:57:18.861Z,13.47
2018-09-17T05:59:48.525Z,11.80
2018-09-17T06:02:17.829Z,10.90
2018-09-17T06:04:47.083Z,12.10
2018-09-17T06:07:16.355Z,11.00
2018-09-17T06:09:45.724Z,12.23
2018-09-17T06:12:14.876Z,11.60
2018-09-17T06:14:44.124Z,11.23
2018-09-17T06:17:13.427Z,11.17
2018-09-17T06:19:42.667Z,11.20
2018-09-17T06:22:11.909Z,11.30
2018-09-17T06:24:41.178Z,12.37
2018-09-17T06:27:10.451Z,11.20
2018-09-17T06:29:39.689Z,12.33
2018-09-17T06:32:08.990Z,10.20
2018-09-17T06:34:38.331Z,10.80
2018-09-17T06:37:07.941Z,9.60
2018-09-17T06:39:37.201Z,11.33
2018-09-17T06:42:06.509Z,13.67
2018-09-17T06:44:35.754Z,13.33
2018-09-17T06:47:05.484Z,12.00
2018-09-17T06:49:34.788Z,11.10
2018-09-17T06:52:04.041Z,10.47
2018-09-17T06:54:33.306Z,11.00
2018-09-17T06:57:03.398Z,13.80
2018-09-17T06:59:32.816Z,13.37
2018-09-17T07:02:03.091Z,12.10
2018-09-17T07:04:32.391Z,13.10
2018-09-17T07:07:01.708Z,13.30
2018-09-17T07:09:31.027Z,12.43
2018-09-17T07:12:00.332Z,20.30
2018-09-17T07:14:30.194Z,17.57
2018-09-17T07:16:59.572Z,12.20
2018-09-17T07:19:28.930Z,12.00
2018-09-17T07:21:58.361Z,12.53
2018-09-17T07:24:27.686Z,11.23
2018-09-17T07:26:56.959Z,12.37
2018-09-17T07:29:26.259Z,11.10
2018-09-17T07:31:55.883Z,11.57
2018-09-17T07:34:25.554Z,11.90
2018-09-17T07:36:54.884Z,11.73
2018-09-17T07:39:24.169Z,10.70
2018-09-17T07:41:53.432Z,11.70
2018-09-17T07:44:22.754Z,11.07
2018-09-17T07:46:52.049Z,10.40
2018-09-17T07:49:21.334Z,10.43
2018-09-17T07:51:50.644Z,11.00
2018-09-17T07:54:19.981Z,11.40
2018-09-17T07:56:49.234Z,11.13
2018-09-17T07:59:18.554Z,10.10
2018-09-17T08:01:47.805Z,12.33
2018-09-17T08:04:17.059Z,10.73
2018-09-17T08:06:46.296Z,12.03
2018-09-17T08:09:15.561Z,11.47
2018-09-17T08:11:45.012Z,11.97
2018-09-17T08:14:15.302Z,10.03
2018-09-17T08:16:44.628Z,10.77
2018-09-17T08:19:13.900Z,10.13
2018-09-17T08:21:43.170Z,11.30
2018-09-17T08:24:13.356Z,10.00
2018-09-17T08:26:42.615Z,10.33
2018-09-17T08:29:11.865Z,11.23
2018-09-17T08:31:41.137Z,9.60
2018-09-17T08:34:10.368Z,9.30
2018-09-17T08:36:39.700Z,9.80
2018-09-17T08:39:10.929Z,9.77
2018-09-17T08:41:40.801Z,8.60
2018-09-17T08:44:10.740Z,8.10
2018-09-17T08:46:40.010Z,9.10
2018-09-17T08:49:09.398Z,8.17
2018-09-17T08:51:38.758Z,8.10
2018-09-17T08:54:07.996Z,9.20
2018-09-17T08:56:42.500Z,8.90
2018-09-17T08:59:16.920Z,8.90
2018-09-17T09:01:51.513Z,8.67
2018-09-17T09:04:27.321Z,9.50
2018-09-17T09:07:01.835Z,8.50
2018-09-17T09:09:31.113Z,9.20
2018-09-17T09:12:04.583Z,8.00
2018-09-17T09:14:33.896Z,8.40
2018-09-17T09:17:03.232Z,7.10
2018-09-17T09:19:32.512Z,6.60
2018-09-17T09:22:01.789Z,5.13
2018-09-17T09:24:31.039Z,5.23
2018-09-17T09:27:00.547Z,4.13
2018-09-17T09:29:29.850Z,5.10
2018-09-17T09:31:59.111Z,4.60
2018-09-17T09:34:28.373Z,4.80
2018-09-17T09:36:57.693Z,5.43
2018-09-17T09:39:26.971Z,3.93
2018-09-17T09:41:56.283Z,3.93
2018-09-17T09:44:25.556Z,3.97
2018-09-17T09:46:54.870Z,3.53
2018-09-17T09:49:24.161Z,4.27
2018-09-17T09:51:53.465Z,4.30
2018-09-17T09:54:22.813Z,4.27
2018-09-17T09:56:52.109Z,3.50
2018-09-17T09:59:21.412Z,3.63
2018-09-17T10:01:53.733Z,3.83
2018-09-17T10:04:23.723Z,4.47
2018-09-17T10:06:53.320Z,4.37
2018-09-17T10:09:28.084Z,4.00
2018-09-17T10:12:02.600Z,3.83
2018-09-17T10:14:37.018Z,4.93
2018-09-17T10:17:11.645Z,7.03
2018-09-17T10:19:46.192Z,4.13
2018-09-17T10:22:15.462Z,4.57
2018-09-17T10:24:44.870Z,3.87
2018-09-17T10:27:14.300Z,4.07
2018-09-17T10:29:43.575Z,4.40
2018-09-17T10:32:13.114Z,4.10
2018-09-17T10:34:42.650Z,4.17
2018-09-17T10:37:12.211Z,3.80
2018-09-17T10:39:41.537Z,4.20
2018-09-17T10:42:10.717Z,5.00
2018-09-17T10:44:40.013Z,4.30
2018-09-17T10:47:09.290Z,4.00
2018-09-17T10:49:38.601Z,4.10
2018-09-17T10:52:07.889Z,3.80
2018-09-17T10:54:37.201Z,4.60
2018-09-17T10:57:06.761Z,3.70
2018-09-17T10:59:36.076Z,3.70
2018-09-17T11:02:05.352Z,4.20
2018-09-17T11:04:34.622Z,4.10
2018-09-17T11:07:03.860Z,4.23
2018-09-17T11:09:33.220Z,4.40
2018-09-17T11:12:02.467Z,4.30
2018-09-17T11:14:31.765Z,4.10
2018-09-17T11:17:01.013Z,3.90
2018-09-17T11:19:30.276Z,3.67
2018-09-17T11:21:59.567Z,4.37
2018-09-17T11:24:28.882Z,4.30
2018-09-17T11:26:58.152Z,4.13
2018-09-17T11:29:27.424Z,4.77
2018-09-17T11:31:56.705Z,4.17
2018-09-17T11:34:25.980Z,4.23
2018-09-17T11:36:55.301Z,4.30
2018-09-17T11:39:24.564Z,4.63
2018-09-17T11:41:53.907Z,4.90
2018-09-17T11:44:23.208Z,4.67
2018-09-17T11:46:52.532Z,4.50
2018-09-17T11:49:22.178Z,5.27
2018-09-17T11:51:51.476Z,4.00
2018-09-17T11:54:20.769Z,4.40
2018-09-17T11:56:50.107Z,4.00
2018-09-17T11:59:19.397Z,4.97
2018-09-17T12:01:55.705Z,4.20
2018-09-17T12:04:30.137Z,4.80
2018-09-17T12:07:04.648Z,4.53
2018-09-17T12:09:33.958Z,4.73
2018-09-17T12:12:03.257Z,3.97
2018-09-17T12:14:32.527Z,3.73
2018-09-17T12:17:01.804Z,4.13
2018-09-17T12:19:31.070Z,3.93
2018-09-17T12:22:00.411Z,4.00
2018-09-17T12:24:29.669Z,4.50
2018-09-17T12:26:58.963Z,4.00
2018-09-17T12:29:28.204Z,4.63
2018-09-17T12:31:57.484Z,3.50
2018-09-17T12:34:26.734Z,4.20
2018-09-17T12:36:56.021Z,4.20
2018-09-17T12:39:25.248Z,4.10
2018-09-17T12:41:54.539Z,3.80
2018-09-17T12:44:23.762Z,4.23
2018-09-17T12:46:52.987Z,3.90
2018-09-17T12:49:22.233Z,3.67
2018-09-17T12:51:51.508Z,3.87
2018-09-17T12:54:20.799Z,4.00
2018-09-17T12:56:50.081Z,4.20
2018-09-17T12:59:19.386Z,4.50
2018-09-17T13:01:48.608Z,3.70
2018-09-17T13:04:17.853Z,3.83
2018-09-17T13:06:47.104Z,3.37
2018-09-17T13:09:16.353Z,4.13
2018-09-17T13:11:45.617Z,3.80
2018-09-17T13:14:14.888Z,5.00
2018-09-17T13:16:44.141Z,4.43
2018-09-17T13:19:13.444Z,4.27
2018-09-17T13:21:42.696Z,4.07
2018-09-17T13:24:11.967Z,4.13
2018-09-17T13:26:41.193Z,4.33
2018-09-17T13:29:10.482Z,3.73
2018-09-17T13:31:39.752Z,4.03
2018-09-17T13:34:09.014Z,3.77
2018-09-17T13:36:38.404Z,4.07
2018-09-17T13:39:07.731Z,3.73
2018-09-17T13:41:36.978Z,4.00
2018-09-17T13:44:06.425Z,4.27
2018-09-17T13:46:35.762Z,4.17
2018-09-17T13:49:05.212Z,4.10
2018-09-17T13:51:34.459Z,5.27
2018-09-17T13:54:03.714Z,4.83
2018-09-17T13:56:33.002Z,4.07
2018-09-17T13:59:02.251Z,4.40
2018-09-17T14:01:31.555Z,3.70
2018-09-17T14:04:00.978Z,3.70
2018-09-17T14:06:30.366Z,4.27
2018-09-17T14:08:59.618Z,3.97
2018-09-17T14:11:28.913Z,3.83
2018-09-17T14:13:58.174Z,4.20
2018-09-17T14:16:32.535Z,4.30
2018-09-17T14:19:01.790Z,3.63
2018-09-17T14:21:32.195Z,4.37
2018-09-17T14:24:01.524Z,4.10
2018-09-17T14:26:30.833Z,4.20
2018-09-17T14:29:00.041Z,4.30
2018-09-17T14:31:34.378Z,3.90
2018-09-17T14:34:03.695Z,4.40
2018-09-17T14:36:33.682Z,4.17
2018-09-17T14:39:03.052Z,4.27
2018-09-17T14:41:32.350Z,3.67
2018-09-17T14:44:01.606Z,4.27
2018-09-17T14:46:31.042Z,4.47
2018-09-17T14:49:00.426Z,4.20
2018-09-17T14:51:29.695Z,4.50
2018-09-17T14:53:59.466Z,4.30
2018-09-17T14:56:28.762Z,4.83
2018-09-17T14:58:58.013Z,4.13
2018-09-17T15:01:27.378Z,4.10
2018-09-17T15:03:56.636Z,4.60
2018-09-17T15:06:25.933Z,4.40
2018-09-17T15:08:55.553Z,5.00
2018-09-17T15:11:24.818Z,3.97
2018-09-17T15:13:54.153Z,4.30
2018-09-17T15:16:23.452Z,4.27
2018-09-17T15:18:52.730Z,4.23
2018-09-17T15:21:22.128Z,4.50
2018-09-17T15:23:51.422Z,4.33
2018-09-17T15:26:20.813Z,4.47
2018-09-17T15:28:50.159Z,4.17
2018-09-17T15:31:19.539Z,4.10
2018-09-17T15:33:48.756Z,4.03
2018-09-17T15:36:18.002Z,4.00
2018-09-17T15:38:47.293Z,4.20
2018-09-17T15:41:16.608Z,4.50
2018-09-17T15:43:45.821Z,4.10
2018-09-17T15:46:15.237Z,4.87
2018-09-17T15:48:44.573Z,4.60
2018-09-17T15:51:13.865Z,18.83
2018-09-17T15:53:43.165Z,4.30
2018-09-17T15:56:12.488Z,4.60
2018-09-17T15:58:41.740Z,7.07
2018-09-17T16:01:11.048Z,3.97
2018-09-17T16:03:40.374Z,5.70
2018-09-17T16:06:09.642Z,4.60
2018-09-17T16:08:38.976Z,4.53
2018-09-17T16:11:09.028Z,4.70
2018-09-17T16:13:38.344Z,5.00
2018-09-17T16:16:07.623Z,4.83
2018-09-17T16:18:36.913Z,4.23
2018-09-17T16:21:06.216Z,4.43
2018-09-17T16:23:35.865Z,3.80
2018-09-17T16:26:05.232Z,4.23
2018-09-17T16:28:34.506Z,3.80
2018-09-17T16:31:03.814Z,4.17
2018-09-17T16:33:33.129Z,4.30
2018-09-17T16:36:02.424Z,4.10
2018-09-17T16:38:31.717Z,4.40
2018-09-17T16:41:01.001Z,4.53
2018-09-17T16:43:30.262Z,4.43
2018-09-17T16:45:59.968Z,4.50
2018-09-17T16:48:29.610Z,4.60
2018-09-17T16:50:58.961Z,4.33
2018-09-17T16:53:28.333Z,5.47
2018-09-17T16:55:57.537Z,4.63
2018-09-17T16:58:26.798Z,4.23
2018-09-17T17:00:56.082Z,4.43
2018-09-17T17:03:25.325Z,4.20
2018-09-17T17:05:54.660Z,4.70
2018-09-17T17:08:23.921Z,12.20
2018-09-17T17:10:53.344Z,8.77
2018-09-17T17:13:22.506Z,9.23
2018-09-17T17:15:51.798Z,6.63
2018-09-17T17:18:21.946Z,8.87
2018-09-17T17:20:51.233Z,8.30
2018-09-17T17:23:20.479Z,12.60
2018-09-17T17:25:49.760Z,13.43
2018-09-17T17:28:19.290Z,8.43
2018-09-17T17:30:48.521Z,5.37
2018-09-17T17:33:17.854Z,37.13
2018-09-17T17:35:47.206Z,6.33
2018-09-17T17:38:16.464Z,5.10
2018-09-17T17:40:45.790Z,5.40
2018-09-17T17:43:15.044Z,7.70
2018-09-17T17:45:44.318Z,5.13
2018-09-17T17:48:13.565Z,5.53
2018-09-17T17:50:42.926Z,5.90
2018-09-17T17:53:12.166Z,5.10
2018-09-17T17:55:41.456Z,5.20
2018-09-17T17:58:10.822Z,4.80
2018-09-17T18:00:40.147Z,4.80
2018-09-17T18:03:09.409Z,5.23
2018-09-17T18:05:38.718Z,5.80
2018-09-17T18:08:08.001Z,5.30
2018-09-17T18:10:37.305Z,4.43
2018-09-17T18:13:06.809Z,6.70
2018-09-17T18:15:36.009Z,5.77
2018-09-17T18:18:05.320Z,4.70
2018-09-17T18:20:34.661Z,4.63
2018-09-17T18:23:03.933Z,5.10
2018-09-17T18:25:33.185Z,4.50
2018-09-17T18:28:02.464Z,5.00
2018-09-17T18:30:31.723Z,5.10
2018-09-17T18:33:01.056Z,4.40
2018-09-17T18:35:30.340Z,5.00
2018-09-17T18:37:59.999Z,4.57
2018-09-17T18:40:29.289Z,4.27
2018-09-17T18:42:58.646Z,5.13
2018-09-17T18:45:27.841Z,4.63
2018-09-17T18:47:57.218Z,4.70
2018-09-17T18:50:26.556Z,5.47
2018-09-17T18:52:56.236Z,4.70
2018-09-17T18:55:25.573Z,5.23
2018-09-17T18:57:54.845Z,4.73
2018-09-17T19:00:24.136Z,5.10
2018-09-17T19:02:53.475Z,4.33
2018-09-17T19:05:22.835Z,4.30
2018-09-17T19:07:52.065Z,4.70
2018-09-17T19:10:21.361Z,4.90
2018-09-17T19:12:50.620Z,5.53
2018-09-17T19:15:25.269Z,6.40
2018-09-17T19:17:54.630Z,5.53
2018-09-17T19:20:23.996Z,4.80
2018-09-17T19:22:58.493Z,6.43
2018-09-17T19:25:27.773Z,9.40
2018-09-17T19:28:02.144Z,4.43
2018-09-17T19:30:31.433Z,5.30
2018-09-17T19:33:00.683Z,5.37
2018-09-17T19:35:30.008Z,5.10
2018-09-17T19:38:04.611Z,8.87
2018-09-17T19:40:33.960Z,5.40
2018-09-17T19:43:03.250Z,5.40
2018-09-17T19:45:37.696Z,5.00
2018-09-17T19:48:06.939Z,5.80
2018-09-17T19:50:41.483Z,5.67
2018-09-17T19:53:10.753Z,6.10
2018-09-17T19:55:40.026Z,5.97
2018-09-17T19:58:14.521Z,5.63
2018-09-17T20:00:43.906Z,5.40
2018-09-17T20:03:13.225Z,5.70
2018-09-17T20:05:47.751Z,5.60
2018-09-17T20:08:17.047Z,6.20
2018-09-17T20:10:46.342Z,5.63
2018-09-17T20:13:15.600Z,5.50
2018-09-17T20:15:44.914Z,5.53
2018-09-17T20:18:15.022Z,5.87
2018-09-17T20:20:44.342Z,5.97
2018-09-17T20:23:13.657Z,6.97
2018-09-17T20:25:42.921Z,5.40
2018-09-17T20:28:12.290Z,6.00
2018-09-17T20:30:41.630Z,7.37
2018-09-17T20:33:11.010Z,7.27
2018-09-17T20:35:40.819Z,6.00
2018-09-17T20:38:10.101Z,6.47
2018-09-17T20:40:40.071Z,5.90
2018-09-17T20:43:09.342Z,6.43
2018-09-17T20:45:38.813Z,6.00
2018-09-17T20:48:08.318Z,6.23
2018-09-17T20:50:37.582Z,5.70
2018-09-17T20:53:06.958Z,5.87
2018-09-17T20:55:36.443Z,6.23
2018-09-17T20:58:05.725Z,6.83
2018-09-17T21:00:35.002Z,5.97
2018-09-17T21:03:04.677Z,6.07
2018-09-17T21:05:34.382Z,6.73
2018-09-17T21:08:03.659Z,6.17
2018-09-17T21:10:32.921Z,6.23
2018-09-17T21:13:02.359Z,6.67
2018-09-17T21:15:32.395Z,6.20
2018-09-17T21:18:01.960Z,5.70
2018-09-17T21:20:31.261Z,6.53
2018-09-17T21:23:00.529Z,6.50
2018-09-17T21:25:29.862Z,17.43
2018-09-17T21:27:59.535Z,12.93
2018-09-17T21:30:28.798Z,6.83
2018-09-17T21:32:58.074Z,8.43
2018-09-17T21:35:27.441Z,10.83
2018-09-17T21:37:56.705Z,6.63
2018-09-17T21:40:26.031Z,6.40
2018-09-17T21:42:55.440Z,6.17
2018-09-17T21:45:24.647Z,6.60
2018-09-17T21:47:53.972Z,6.50
2018-09-17T21:50:23.928Z,6.10
2018-09-17T21:52:53.293Z,6.50
2018-09-17T21:55:23.679Z,7.60
2018-09-17T21:57:52.950Z,6.50
2018-09-17T22:00:22.346Z,6.33
2018-09-17T22:02:51.697Z,6.17
2018-09-17T22:05:21.037Z,6.60
2018-09-17T22:07:50.418Z,6.00
2018-09-17T22:10:19.689Z,7.27
2018-09-17T22:12:48.989Z,7.10
2018-09-17T22:15:18.364Z,14.70
2018-09-17T22:17:47.734Z,9.60
2018-09-17T22:20:16.999Z,7.67
2018-09-17T22:22:46.278Z,6.07
2018-09-17T22:25:15.577Z,5.93
2018-09-17T22:27:44.903Z,6.50
2018-09-17T22:30:14.169Z,6.50
2018-09-17T22:32:43.434Z,6.50
2018-09-17T22:35:12.758Z,6.00
2018-09-17T22:37:42.071Z,6.80
2018-09-17T22:40:11.402Z,6.30
2018-09-17T22:42:40.680Z,7.47
2018-09-17T22:45:10.153Z,7.50
2018-09-17T22:47:39.416Z,6.80
2018-09-17T22:50:08.694Z,5.80
2018-09-17T22:52:37.958Z,6.57
2018-09-17T22:55:07.214Z,6.80
2018-09-17T22:57:36.486Z,7.43
2018-09-17T23:00:05.855Z,7.80
2018-09-17T23:02:35.147Z,8.47
2018-09-17T23:05:04.428Z,7.93
2018-09-17T23:07:33.672Z,6.87
2018-09-17T23:10:03.018Z,11.30
2018-09-17T23:12:32.275Z,6.90
2018-09-17T23:15:16.277Z,6.80
2018-09-17T23:17:45.519Z,6.77
2018-09-17T23:20:14.775Z,7.40
2018-09-17T23:22:44.030Z,6.90
2018-09-17T23:25:13.276Z,6.67
2018-09-17T23:27:42.524Z,6.63
2018-09-17T23:30:12.042Z,17.90
2018-09-17T23:32:41.300Z,7.40
2018-09-17T23:35:10.625Z,9.70
2018-09-17T23:37:39.885Z,9.83
2018-09-17T23:40:09.177Z,6.93
2018-09-17T23:42:38.438Z,6.60
2018-09-17T23:45:07.686Z,6.80
2018-09-17T23:47:36.993Z,6.97
2018-09-17T23:50:06.233Z,8.00
2018-09-17T23:52:35.508Z,11.47
2018-09-17T23:55:04.770Z,7.30
2018-09-17T23:57:34.054Z,6.47
